ADDS METAR Data INFO
IDs: Format: Raw Decoded Include TAF

Data at: 2330 UTC 29 Jun 2016

Region: TOP
KATL 292252Z 32006KT 10SM FEW075 SCT250 33/15 A2992 RMK AO2 SLP120 TCU DSNT NE-E T03330150

KBOS 292254Z 13008KT 10SM FEW033 SCT075 BKN120 BKN250 23/17 A2983 RMK AO2 SLP101 T02330172

KBWI 292254Z VRB06KT 10SM SCT060 26/13 A2995 RMK AO2 SLP140 T02560133

KCLE 292251Z 35006KT 10SM FEW055 24/07 A3008 RMK AO2 SLP182 T02390067

KCLT 292252Z 03007KT 10SM FEW075 BKN100 BKN130 BKN250 28/17 A2992 RMK AO2 SLP125 T02780172

KCVG 292252Z 32009KT 290V350 10SM FEW060 SCT250 25/10 A3004 RMK AO2 SLP166 T02500100

KDCA 292252Z 33012G19KT 10SM FEW065 27/13 A2996 RMK AO2 SLP145 T02670128

KDEN 292253Z 01013KT 10SM FEW120 BKN160 BKN240 28/09 A3017 RMK AO2 PK WND 36026/2224 SLP140 CONS LTGICCG DSNT NE-E AND S CB DSNT NE-E AND S MOV SE T02830089 $

KDFW 292253Z 10007KT 10SM FEW065 SCT300 34/18 A2996 RMK AO2 SLP135 T03390178 $

KDTW 292253Z 27008KT 10SM CLR 26/04 A3003 RMK AO2 SLP166 T02610039 $

KEWR 292251Z 30010KT 10SM SCT070 SCT250 28/14 A2987 RMK AO2 SLP113 T02830139

KFLL 292253Z 14009KT 10SM FEW030 FEW110 BKN250 29/23 A2997 RMK AO2 SLP147 T02940233

KIAD 292252Z 35011KT 10SM FEW055 26/12 A2996 RMK AO2 SLP144 T02610122

KIAH 292253Z 03012KT 10SM FEW036 SCT045 SCT250 31/24 A2990 RMK AO2 RAB16E33 SLP124 P0000 T03110239

KJFK 292251Z 30008KT 10SM SCT070 SCT090 SCT250 30/12 A2987 RMK AO2 SLP113 T03000117

KLAS 292256Z 20008KT 10SM FEW100 SCT200 42/03 A2977 RMK AO2 SLP045 CB DSNT N AND E T04220028

KLAX 292253Z 25012KT 9SM FEW010 FEW090 22/16 A2987 RMK AO2 SLP112 T02220161 $

KLGA 292251Z 32011KT 10SM SCT070 SCT085 SCT250 27/15 A2986 RMK AO2 SLP110 T02720150

KMCO 292253Z 18006KT 10SM FEW040 SCT080 OVC210 28/24 A2997 RMK AO2 SLP147 T02780239

KMDW 292253Z 10009KT 10SM FEW070 BKN250 24/07 A3006 RMK AO2 SLP172 T02440072

KMEM 292254Z VRB06G15KT 10SM BKN250 31/17 A2999 RMK AO2 SLP152 T03060172

KMIA 292253Z 12009KT 10SM FEW028 SCT110 BKN250 29/23 A2997 RMK AO2 SLP148 CB DSNT SW-NW T02940233

KMSP 292253Z 19008KT 170V240 10SM FEW070 SCT300 27/09 A3001 RMK AO2 SLP157 T02670089

KORD 292251Z 09010KT 10SM FEW070 BKN250 23/08 A3005 RMK AO2 SLP174 T02330083

KPDX 292253Z 31007KT 10SM FEW035 24/13 A3013 RMK AO2 SLP203 T02440128

KPHL 292254Z 29010KT 10SM SCT060 28/12 A2990 RMK AO2 SLP126 T02780117

KPHX 292251Z 16004KT 10SM SCT095 SCT170 BKN250 41/14 A2978 RMK AO2 SLP060 CB DSNT N-NE AND E AND SE AND NW T04060139

KPIT 292251Z 35005KT 10SM FEW047 BKN065 22/10 A3005 RMK AO2 SLP178 T02220100

KSAN 292251Z 27008KT 10SM FEW008 FEW060 SCT140 24/17 A2989 RMK AO2 SLP120 TCU DSNT NE-E T02390167 $

KSEA 292253Z 18005KT 10SM SCT020 21/14 A3019 RMK AO2 SLP227 T02060139

KSFO 292256Z 28015KT 10SM FEW006 17/10 A2998 RMK AO2 SLP150 T01720100

KSLC 292254Z VRB03KT 10SM FEW110 SCT150 BKN250 36/02 A3001 RMK AO2 SLP095 CB DSNT SE-W T03560022

KSTL 292251Z 05007KT 10SM SCT090 SCT140 BKN250 27/10 A3006 RMK AO2 SLP169 T02670100

KTPA 292253Z 28008KT 10SM SCT032TCU SCT200 BKN320 31/23 A2996 RMK AO2 SLP146 CB DSNT E-SE TCU N-S VCSH E T03060228